Portage Glacier, Alaska
Current Conditions -  °F | °C
As of 4:53 AM on Friday 24 Oct 2014 (Local Time) from PATO Reporting Station
Overcast Overcast  
Wind Chill: 23°   Ceiling: 3900
Heat Index: 23°   Visibility: 10mi
Dew Point: 22°   Wind: 0mph
Humidity: 96%   Direction: NA
Pressure: 29.79"   Gusts: NA
Location:  60.78°N, 148.85°W
Report Text: PATO 241253Z AUTO 00000KT 10SM BKN039 BKN045 OVC060 M05/M06 A2979 RMK AO2 SLP088 T10501056 TSNO
Loading
Personal Weather Stations






























Interactive Weather Map
Tropical Storm Tracking
New forecast layout! Learn more

10-Day Weather Forecast

Advertisements
Track Severe Weather on mobile